createdAt,value
2023-05-14T00:02:01.094Z,16.35
2023-05-14T00:04:27.963Z,16.15
2023-05-14T00:06:55.245Z,16.21
2023-05-14T00:09:25.916Z,16.35
2023-05-14T00:11:59.636Z,16.39
2023-05-14T00:14:26.696Z,16.03
2023-05-14T00:16:53.770Z,16.16
2023-05-14T00:32:50.438Z,15.85
2023-05-14T00:35:19.756Z,15.83
2023-05-14T00:37:46.564Z,16.04
2023-05-14T00:40:41.954Z,15.69
2023-05-14T00:43:08.779Z,15.66
2023-05-14T00:45:35.652Z,15.77
2023-05-14T00:48:03.177Z,15.84
2023-05-14T00:50:34.920Z,15.84
2023-05-14T00:53:02.647Z,15.68
2023-05-14T00:55:33.754Z,15.65
2023-05-14T00:58:00.825Z,15.51
2023-05-14T01:00:27.619Z,15.58
2023-05-14T01:02:54.522Z,15.63
2023-05-14T01:05:25.608Z,15.50
2023-05-14T01:08:02.052Z,15.49
2023-05-14T01:11:21.644Z,15.63
2023-05-14T01:13:57.514Z,15.53
2023-05-14T01:16:28.443Z,15.27
2023-05-14T01:18:58.015Z,15.40
2023-05-14T01:21:40.587Z,15.40
2023-05-14T01:24:08.379Z,15.33
2023-05-14T01:26:36.865Z,15.62
2023-05-14T01:29:21.241Z,15.61
2023-05-14T01:31:50.281Z,15.64
2023-05-14T01:34:21.494Z,15.44
2023-05-14T01:36:49.940Z,15.41
2023-05-14T01:39:17.657Z,15.66
2023-05-14T01:41:46.310Z,15.67
2023-05-14T01:44:13.456Z,15.50
2023-05-14T01:46:40.364Z,15.59
2023-05-14T01:49:07.282Z,15.60
2023-05-14T01:51:34.090Z,15.52
2023-05-14T01:54:01.067Z,15.61
2023-05-14T01:56:32.532Z,15.63
2023-05-14T01:59:37.577Z,15.44
2023-05-14T02:02:33.116Z,15.28
2023-05-14T02:04:59.876Z,15.42
2023-05-14T02:07:26.781Z,15.49
2023-05-14T02:09:53.480Z,15.37
2023-05-14T02:12:20.154Z,15.55
2023-05-14T02:14:48.140Z,15.48
2023-05-14T02:17:18.323Z,15.55
2023-05-14T02:19:51.543Z,15.47
2023-05-14T02:22:19.521Z,15.43
2023-05-14T02:24:52.690Z,15.28
2023-05-14T02:27:19.840Z,15.45
2023-05-14T02:29:46.573Z,15.32
2023-05-14T02:32:13.554Z,15.38
2023-05-14T02:34:40.681Z,15.22
2023-05-14T02:37:17.998Z,15.39
2023-05-14T02:39:44.853Z,15.38
2023-05-14T02:42:11.711Z,15.19
2023-05-14T02:44:38.486Z,15.40
2023-05-14T02:47:05.922Z,15.20
2023-05-14T02:49:32.789Z,15.42
2023-05-14T02:52:01.072Z,15.78
2023-05-14T02:54:28.293Z,15.77
2023-05-14T02:56:55.129Z,15.60
2023-05-14T02:59:22.048Z,15.99
2023-05-14T03:01:49.357Z,15.60
2023-05-14T03:04:16.645Z,15.48
2023-05-14T03:06:43.353Z,15.45
2023-05-14T03:09:10.199Z,15.45
2023-05-14T03:11:37.011Z,15.42
2023-05-14T03:14:03.751Z,15.39
2023-05-14T03:16:30.667Z,15.47
2023-05-14T03:18:57.415Z,15.38
2023-05-14T03:21:24.313Z,15.30
2023-05-14T03:23:52.247Z,15.25
2023-05-14T03:26:18.964Z,15.38
2023-05-14T03:28:45.700Z,15.66
2023-05-14T03:31:12.579Z,15.32
2023-05-14T03:33:39.620Z,15.48
2023-05-14T03:36:06.550Z,15.54
2023-05-14T03:38:33.454Z,15.70
2023-05-14T03:41:00.388Z,15.73
2023-05-14T03:43:27.164Z,15.46
2023-05-14T03:45:54.371Z,15.52
2023-05-14T03:48:21.240Z,15.28
2023-05-14T03:50:48.184Z,15.31
2023-05-14T03:53:15.243Z,15.40
2023-05-14T03:55:42.607Z,15.50
2023-05-14T03:58:14.327Z,15.50
2023-05-14T04:00:42.902Z,15.83
2023-05-14T04:03:09.890Z,15.93
2023-05-14T04:05:36.695Z,15.70
2023-05-14T04:08:04.511Z,15.81
2023-05-14T04:10:32.261Z,15.55
2023-05-14T04:12:59.156Z,15.42
2023-05-14T04:15:25.962Z,15.16
2023-05-14T04:17:52.667Z,14.97
2023-05-14T04:20:28.461Z,15.25
2023-05-14T04:23:02.676Z,15.17
2023-05-14T04:25:42.992Z,15.27
2023-05-14T04:28:09.655Z,15.13
2023-05-14T04:30:59.976Z,15.21
2023-05-14T04:33:32.404Z,15.22
2023-05-14T04:54:47.974Z,14.78
2023-05-14T04:57:45.140Z,14.71
2023-05-14T05:00:37.693Z,14.62
2023-05-14T05:03:08.327Z,14.73
2023-05-14T05:05:38.470Z,14.60
2023-05-14T05:08:05.353Z,14.60
2023-05-14T05:10:32.097Z,14.53
2023-05-14T05:13:00.189Z,14.47
2023-05-14T05:16:03.620Z,14.35
2023-05-14T05:21:36.804Z,14.66
2023-05-14T05:24:03.750Z,14.64
2023-05-14T05:26:33.478Z,14.63
2023-05-14T05:29:03.212Z,14.43
2023-05-14T05:31:31.123Z,14.50
2023-05-14T05:33:59.741Z,14.65
2023-05-14T05:36:26.536Z,14.61
2023-05-14T05:38:56.494Z,14.71
2023-05-14T05:41:23.338Z,14.71
2023-05-14T05:43:49.992Z,14.80
2023-05-14T05:46:16.761Z,14.91
2023-05-14T05:48:43.661Z,14.96
2023-05-14T05:51:10.406Z,14.78
2023-05-14T05:53:40.060Z,14.49
2023-05-14T05:56:08.150Z,14.55
2023-05-14T05:58:35.526Z,14.65
2023-05-14T06:01:02.492Z,14.75
2023-05-14T06:03:29.472Z,14.77
2023-05-14T06:06:02.014Z,14.78
2023-05-14T06:08:30.737Z,14.50
2023-05-14T06:10:57.860Z,14.54
2023-05-14T06:13:27.540Z,14.49
2023-05-14T06:15:54.990Z,14.74
2023-05-14T06:18:22.145Z,14.73
2023-05-14T06:20:48.900Z,14.45
2023-05-14T06:23:16.948Z,14.69
2023-05-14T06:25:44.010Z,14.57
2023-05-14T06:28:11.202Z,14.44
2023-05-14T06:30:38.062Z,14.44
2023-05-14T06:33:08.397Z,14.74
2023-05-14T06:35:35.405Z,14.61
2023-05-14T06:38:04.866Z,14.29
2023-05-14T06:40:38.627Z,14.18
2023-05-14T06:43:06.820Z,14.38
2023-05-14T06:45:33.582Z,14.10
2023-05-14T06:48:00.580Z,14.42
2023-05-14T06:50:28.478Z,14.53
2023-05-14T06:52:55.143Z,14.58
2023-05-14T06:55:23.213Z,14.67
2023-05-14T06:57:55.514Z,14.81
2023-05-14T07:00:23.017Z,14.84
2023-05-14T07:02:50.052Z,14.63
2023-05-14T07:05:16.913Z,14.60
2023-05-14T07:07:43.712Z,14.50
2023-05-14T07:10:10.684Z,14.51
2023-05-14T07:12:37.724Z,14.60
2023-05-14T07:15:05.167Z,14.51
2023-05-14T07:17:31.945Z,14.18
2023-05-14T07:19:58.575Z,14.42
2023-05-14T07:22:28.946Z,14.13
2023-05-14T07:24:56.103Z,14.18
2023-05-14T07:27:23.208Z,14.00
2023-05-14T07:29:50.876Z,13.90
2023-05-14T07:32:17.754Z,14.10
2023-05-14T07:34:46.790Z,14.30
2023-05-14T07:37:36.680Z,14.22
2023-05-14T07:40:03.681Z,14.45
2023-05-14T07:42:37.058Z,14.65
2023-05-14T07:45:05.214Z,14.49
2023-05-14T07:47:34.389Z,14.45
2023-05-14T07:52:41.861Z,14.19
2023-05-14T07:55:09.293Z,14.42
2023-05-14T07:57:36.139Z,14.33
2023-05-14T08:00:03.496Z,14.29
2023-05-14T08:02:30.428Z,14.20
2023-05-14T08:07:38.007Z,14.74
2023-05-14T08:10:07.423Z,14.85
2023-05-14T08:12:45.359Z,15.12
2023-05-14T08:15:12.642Z,14.76
2023-05-14T08:17:40.673Z,14.63
2023-05-14T08:20:08.350Z,14.39
2023-05-14T08:22:38.019Z,14.29
2023-05-14T08:25:06.218Z,14.07
2023-05-14T08:27:42.261Z,14.23
2023-05-14T08:30:09.552Z,14.37
2023-05-14T08:32:42.079Z,14.50
2023-05-14T08:35:09.817Z,14.75
2023-05-14T08:37:37.865Z,14.86
2023-05-14T08:40:04.912Z,14.98
2023-05-14T08:42:34.317Z,14.95
2023-05-14T08:45:03.401Z,14.81
2023-05-14T08:47:31.230Z,14.78
2023-05-14T08:50:06.552Z,14.52
2023-05-14T08:52:34.629Z,14.56
2023-05-14T08:55:06.329Z,14.85
2023-05-14T08:57:34.468Z,14.74
2023-05-14T09:00:02.403Z,14.65
2023-05-14T09:02:31.547Z,14.60
2023-05-14T09:05:01.545Z,15.03
2023-05-14T09:07:28.402Z,14.77
2023-05-14T09:09:55.940Z,15.02
2023-05-14T09:12:37.465Z,14.90
2023-05-14T09:15:06.010Z,14.98
2023-05-14T09:17:34.067Z,15.12
2023-05-14T09:20:01.425Z,14.76
2023-05-14T09:22:31.957Z,14.91
2023-05-14T09:25:08.128Z,15.02
2023-05-14T09:27:56.680Z,15.15
2023-05-14T09:30:25.672Z,15.25
2023-05-14T09:32:54.654Z,15.42
2023-05-14T09:35:33.712Z,15.12
2023-05-14T09:38:00.694Z,15.03
2023-05-14T09:40:30.201Z,14.98
2023-05-14T09:42:56.959Z,15.31
2023-05-14T09:45:24.253Z,15.34
2023-05-14T09:48:03.597Z,15.18
2023-05-14T09:50:52.433Z,15.54
2023-05-14T09:53:19.891Z,15.38
2023-05-14T09:55:47.320Z,14.95
2023-05-14T09:58:14.904Z,15.34
2023-05-14T10:00:48.696Z,15.25
2023-05-14T10:03:17.997Z,15.42
2023-05-14T10:06:21.029Z,15.27
2023-05-14T10:08:49.580Z,15.46
2023-05-14T10:11:25.039Z,15.52
2023-05-14T10:14:13.605Z,15.48
2023-05-14T10:16:51.436Z,15.18
2023-05-14T10:19:28.514Z,15.38
2023-05-14T10:22:07.137Z,15.72
2023-05-14T10:24:36.264Z,16.24
2023-05-14T10:27:04.953Z,16.14
2023-05-14T10:29:36.755Z,16.26
2023-05-14T10:32:10.128Z,15.87
2023-05-14T10:37:26.978Z,15.92
2023-05-14T10:39:55.025Z,16.10
2023-05-14T10:42:23.202Z,16.18
2023-05-14T10:45:16.294Z,16.43
2023-05-14T10:47:49.610Z,16.60
2023-05-14T10:50:17.740Z,16.85
2023-05-14T10:53:00.410Z,17.42
2023-05-14T10:55:58.250Z,17.05
2023-05-14T10:58:24.977Z,17.03
2023-05-14T11:00:54.748Z,16.77
2023-05-14T11:03:24.659Z,16.73
2023-05-14T11:05:51.550Z,16.84
2023-05-14T11:08:46.737Z,16.45
2023-05-14T11:11:13.624Z,16.59
2023-05-14T11:13:41.638Z,16.58
2023-05-14T11:16:21.925Z,16.23
2023-05-14T11:19:00.844Z,16.19
2023-05-14T11:21:27.935Z,16.07
2023-05-14T11:23:58.865Z,15.88
2023-05-14T11:26:26.051Z,15.97
2023-05-14T11:28:52.877Z,15.98
2023-05-14T11:31:19.644Z,16.41
2023-05-14T11:33:46.718Z,16.08
2023-05-14T11:36:13.600Z,16.48
2023-05-14T11:38:52.490Z,16.59
2023-05-14T11:41:23.538Z,17.07
2023-05-14T11:43:50.822Z,16.86
2023-05-14T11:46:21.887Z,16.98
2023-05-14T11:48:48.852Z,17.29
2023-05-14T11:51:18.632Z,16.93
2023-05-14T11:53:50.939Z,17.06
2023-05-14T11:56:49.426Z,16.96
2023-05-14T11:59:19.498Z,16.69
2023-05-14T12:02:24.172Z,16.74
2023-05-14T12:04:54.104Z,16.76
2023-05-14T12:07:21.034Z,16.79
2023-05-14T12:09:51.429Z,16.77
2023-05-14T12:12:22.649Z,16.51
2023-05-14T12:15:01.709Z,16.43
2023-05-14T12:17:29.241Z,16.26
2023-05-14T12:19:57.389Z,16.22
2023-05-14T12:22:25.472Z,16.19
2023-05-14T12:24:57.488Z,16.09
2023-05-14T12:27:26.373Z,16.43
2023-05-14T12:30:21.700Z,16.69
2023-05-14T12:32:51.890Z,16.46
2023-05-14T12:35:19.365Z,16.47
2023-05-14T12:37:46.286Z,16.72
2023-05-14T12:40:18.935Z,16.62
2023-05-14T12:42:45.771Z,16.80
2023-05-14T12:45:12.709Z,16.39
2023-05-14T12:47:39.457Z,16.03
2023-05-14T12:50:07.076Z,15.98
2023-05-14T12:52:38.402Z,16.22
2023-05-14T12:55:09.489Z,16.24
2023-05-14T12:57:39.335Z,16.10
2023-05-14T13:00:14.366Z,16.38
2023-05-14T13:02:48.924Z,16.12
2023-05-14T13:05:15.931Z,15.92
2023-05-14T13:07:42.828Z,15.91
2023-05-14T13:10:12.048Z,15.77
2023-05-14T13:12:39.129Z,15.93
2023-05-14T13:15:06.521Z,15.63
2023-05-14T13:17:38.675Z,15.64
2023-05-14T13:20:13.525Z,15.59
2023-05-14T13:22:40.412Z,15.60
2023-05-14T13:25:10.943Z,15.53
2023-05-14T13:27:40.235Z,15.46
2023-05-14T13:30:07.772Z,15.40
2023-05-14T13:32:35.717Z,15.37
2023-05-14T13:35:03.196Z,15.36
2023-05-14T13:37:30.204Z,15.37
2023-05-14T13:40:18.217Z,15.35
2023-05-14T13:42:44.918Z,15.30
2023-05-14T13:45:35.658Z,15.38
2023-05-14T13:48:02.592Z,15.51
2023-05-14T13:50:30.468Z,15.37
2023-05-14T13:52:57.229Z,15.58
2023-05-14T13:55:24.270Z,15.46
2023-05-14T13:57:51.347Z,15.38
2023-05-14T14:00:23.382Z,15.32
2023-05-14T14:02:50.284Z,15.21
2023-05-14T14:05:17.045Z,15.27
2023-05-14T14:07:52.940Z,15.32
2023-05-14T14:10:24.289Z,15.44
2023-05-14T14:12:51.680Z,15.32
2023-05-14T14:15:18.480Z,15.26
2023-05-14T14:17:45.304Z,15.34
2023-05-14T14:20:14.033Z,15.16
2023-05-14T14:22:43.206Z,15.18
2023-05-14T14:25:11.204Z,14.94
2023-05-14T14:27:38.972Z,15.25
2023-05-14T14:30:17.102Z,15.22
2023-05-14T14:32:47.841Z,15.30
2023-05-14T14:35:17.317Z,15.43
2023-05-14T14:37:52.853Z,15.58
2023-05-14T14:40:19.994Z,15.16
2023-05-14T14:42:48.163Z,15.17
2023-05-14T14:45:15.145Z,15.10
2023-05-14T14:50:40.000Z,15.08
2023-05-14T14:53:07.559Z,15.16
2023-05-14T14:55:45.473Z,15.13
2023-05-14T15:00:59.145Z,15.22
2023-05-14T15:03:26.872Z,15.17
2023-05-14T15:05:54.111Z,15.02
2023-05-14T15:08:24.852Z,15.07
2023-05-14T15:10:53.253Z,15.17
2023-05-14T15:13:28.456Z,15.32
2023-05-14T15:16:16.721Z,15.28
2023-05-14T15:18:43.694Z,15.24
2023-05-14T15:21:10.904Z,15.27
2023-05-14T15:23:37.614Z,15.01
2023-05-14T15:26:06.109Z,15.06
2023-05-14T15:28:33.344Z,15.06
2023-05-14T15:31:23.263Z,15.24
2023-05-14T15:33:50.671Z,15.28
2023-05-14T15:36:17.367Z,15.11
2023-05-14T15:38:46.900Z,14.98
2023-05-14T15:41:13.656Z,14.90
2023-05-14T15:43:40.397Z,14.97
2023-05-14T15:46:07.171Z,14.99
2023-05-14T15:49:04.267Z,14.82
2023-05-14T15:51:32.142Z,14.98
2023-05-14T15:54:04.227Z,15.02
2023-05-14T15:56:36.508Z,14.80
2023-05-14T16:01:44.484Z,14.65
2023-05-14T16:04:11.685Z,14.75
2023-05-14T16:06:42.024Z,14.84
2023-05-14T16:09:09.417Z,14.56
2023-05-14T16:11:36.872Z,14.67
2023-05-14T16:14:06.219Z,14.76
2023-05-14T16:16:45.026Z,14.66
2023-05-14T16:19:14.994Z,14.64
2023-05-14T16:21:42.198Z,14.85
2023-05-14T16:24:09.164Z,14.64
2023-05-14T16:26:41.452Z,14.55
2023-05-14T16:29:12.087Z,14.77
2023-05-14T16:31:39.228Z,14.58
2023-05-14T16:34:05.908Z,14.40
2023-05-14T16:36:38.225Z,14.46
2023-05-14T16:39:08.370Z,14.30
2023-05-14T16:41:38.913Z,14.18
2023-05-14T16:44:15.308Z,14.22
2023-05-14T16:46:46.466Z,14.21
2023-05-14T16:49:14.131Z,14.64
2023-05-14T16:51:48.829Z,14.59
2023-05-14T16:54:24.600Z,14.45
2023-05-14T16:56:51.581Z,14.60
2023-05-14T16:59:22.939Z,14.58
2023-05-14T17:01:52.063Z,14.77
2023-05-14T17:04:20.372Z,14.58
2023-05-14T17:06:47.264Z,14.45
2023-05-14T17:09:14.098Z,14.51
2023-05-14T17:11:41.152Z,14.70
2023-05-14T17:14:07.897Z,14.68
2023-05-14T17:16:34.633Z,14.47
2023-05-14T17:19:11.352Z,14.57
2023-05-14T17:21:38.431Z,14.42
2023-05-14T17:24:16.682Z,14.62
2023-05-14T17:26:43.399Z,14.71
2023-05-14T17:29:10.252Z,14.72
2023-05-14T17:31:45.923Z,14.63
2023-05-14T17:34:12.809Z,14.64
2023-05-14T17:39:20.379Z,14.42
2023-05-14T17:41:47.354Z,14.35
2023-05-14T17:44:14.301Z,14.58
2023-05-14T17:46:42.216Z,14.61
2023-05-14T17:49:12.358Z,14.69
2023-05-14T17:51:39.103Z,14.65
2023-05-14T17:54:06.113Z,14.76
2023-05-14T17:56:32.969Z,14.63
2023-05-14T17:59:02.973Z,14.58
2023-05-14T18:01:29.881Z,14.76
2023-05-14T18:04:15.372Z,14.59
2023-05-14T18:06:48.481Z,14.52
2023-05-14T18:09:15.432Z,14.50
2023-05-14T18:11:50.182Z,14.70
2023-05-14T18:14:17.737Z,14.72
2023-05-14T18:16:44.624Z,14.75
2023-05-14T18:19:11.720Z,14.65
2023-05-14T18:24:19.222Z,14.47
2023-05-14T18:26:45.930Z,14.55
2023-05-14T18:29:12.674Z,14.57
2023-05-14T18:31:39.472Z,14.58
2023-05-14T18:34:06.413Z,14.76
2023-05-14T18:36:34.779Z,14.66
2023-05-14T18:39:19.892Z,14.56
2023-05-14T18:41:48.254Z,14.57
2023-05-14T18:44:40.415Z,14.54
2023-05-14T18:47:07.471Z,14.68
2023-05-14T18:49:34.656Z,14.75
2023-05-14T18:52:01.676Z,14.76
2023-05-14T19:05:13.651Z,14.82
2023-05-14T19:08:12.657Z,14.89
2023-05-14T19:10:39.774Z,14.99
2023-05-14T19:13:28.763Z,15.11
2023-05-14T19:15:56.462Z,15.12
2023-05-14T19:18:23.376Z,15.01
2023-05-14T19:20:51.593Z,15.10
2023-05-14T19:23:21.535Z,15.19
2023-05-14T19:25:57.723Z,15.19
2023-05-14T19:28:40.625Z,15.20
2023-05-14T19:31:10.804Z,15.12
2023-05-14T19:33:50.545Z,15.17
2023-05-14T19:36:23.675Z,15.00
2023-05-14T19:42:07.526Z,15.18
2023-05-14T19:52:43.083Z,14.85
2023-05-14T19:55:10.198Z,14.99
2023-05-14T19:57:39.491Z,14.93
2023-05-14T20:00:09.232Z,15.06
2023-05-14T20:02:38.382Z,15.07
2023-05-14T20:05:14.828Z,14.95
2023-05-14T20:07:54.861Z,14.82
2023-05-14T20:11:00.001Z,15.03
2023-05-14T20:13:26.870Z,15.06
2023-05-14T20:15:57.145Z,14.97
2023-05-14T20:18:24.681Z,14.91
2023-05-14T20:20:55.138Z,15.10
2023-05-14T20:23:23.754Z,15.14
2023-05-14T20:26:06.078Z,15.18
2023-05-14T20:28:47.840Z,15.19
2023-05-14T20:31:43.221Z,15.21
2023-05-14T20:34:33.237Z,15.07
2023-05-14T20:37:08.131Z,15.16
2023-05-14T20:39:35.408Z,15.13
2023-05-14T20:42:02.221Z,14.98
2023-05-14T20:44:29.556Z,15.06
2023-05-14T20:46:56.493Z,15.21
2023-05-14T20:49:25.956Z,15.14
2023-05-14T20:51:53.709Z,15.25
2023-05-14T20:54:20.586Z,15.48
2023-05-14T20:56:48.879Z,15.42
2023-05-14T20:59:15.741Z,15.29
2023-05-14T21:01:42.967Z,15.16
2023-05-14T21:04:09.979Z,15.22
2023-05-14T21:06:37.226Z,15.18
2023-05-14T21:09:05.499Z,15.20
2023-05-14T21:11:40.654Z,15.18
2023-05-14T21:14:07.732Z,14.97
2023-05-14T21:16:34.942Z,14.97
2023-05-14T21:19:02.077Z,14.93
2023-05-14T21:21:28.952Z,14.91
2023-05-14T21:23:55.988Z,15.03
2023-05-14T21:26:23.090Z,14.92
2023-05-14T21:28:55.027Z,15.09
2023-05-14T21:31:22.141Z,14.94
2023-05-14T21:33:49.221Z,15.07
2023-05-14T21:36:16.230Z,14.90
2023-05-14T21:38:43.574Z,15.10
2023-05-14T21:41:11.355Z,15.15
2023-05-14T21:43:40.820Z,15.25
2023-05-14T21:46:10.458Z,15.12
2023-05-14T21:48:37.581Z,15.21
2023-05-14T21:51:07.870Z,15.11
2023-05-14T21:53:35.101Z,15.24
2023-05-14T21:56:03.700Z,15.11
2023-05-14T21:58:30.766Z,15.20
2023-05-14T22:00:57.991Z,15.19
2023-05-14T22:03:25.005Z,15.14
2023-05-14T22:05:51.994Z,14.88
2023-05-14T22:08:19.833Z,15.01
2023-05-14T22:10:48.064Z,15.19
2023-05-14T22:13:15.341Z,15.08
2023-05-14T22:15:42.362Z,15.09
2023-05-14T22:18:09.849Z,15.01
2023-05-14T22:20:40.379Z,15.22
2023-05-14T22:23:07.311Z,15.10
2023-05-14T22:25:34.890Z,15.18
2023-05-14T22:28:01.912Z,15.20
2023-05-14T22:30:30.086Z,15.28
2023-05-14T22:33:00.446Z,15.21
2023-05-14T22:35:27.877Z,15.30
2023-05-14T22:37:54.758Z,15.20
2023-05-14T22:40:21.713Z,15.21
2023-05-14T22:42:52.404Z,15.22
2023-05-14T22:45:19.268Z,15.03
2023-05-14T22:47:46.584Z,15.12
2023-05-14T22:50:13.673Z,15.29
2023-05-14T22:52:41.256Z,15.14
2023-05-14T22:55:09.468Z,15.13
2023-05-14T22:57:36.829Z,15.25
2023-05-14T23:00:07.741Z,14.97
2023-05-14T23:02:34.801Z,14.88
2023-05-14T23:05:01.812Z,15.10
2023-05-14T23:07:28.781Z,15.05
2023-05-14T23:09:55.798Z,14.97
2023-05-14T23:12:22.555Z,15.02
2023-05-14T23:14:49.949Z,14.93
2023-05-14T23:17:19.090Z,15.01
2023-05-14T23:19:47.145Z,15.00
2023-05-14T23:22:14.286Z,15.14
2023-05-14T23:24:42.171Z,15.22
2023-05-14T23:27:09.395Z,15.16
2023-05-14T23:29:37.146Z,15.14
2023-05-14T23:32:04.135Z,15.15
2023-05-14T23:34:31.207Z,15.16
2023-05-14T23:37:01.229Z,15.02
2023-05-14T23:39:28.559Z,15.01
2023-05-14T23:41:55.600Z,15.17
2023-05-14T23:44:26.088Z,14.97
2023-05-14T23:46:54.107Z,14.81
2023-05-14T23:49:22.083Z,14.75
2023-05-14T23:51:49.393Z,14.79
2023-05-14T23:54:17.770Z,14.82
2023-05-14T23:56:45.577Z,14.81
2023-05-14T23:59:13.150Z,14.80
